createdAt,value
2018-06-01T19:22:09.641Z,75.80
2018-06-01T19:24:35.844Z,75.60
2018-06-01T19:27:02.773Z,78.50
2018-06-01T19:29:28.966Z,78.40
2018-06-01T19:31:55.128Z,78.40
2018-06-01T19:34:21.334Z,79.10
2018-06-01T19:36:47.517Z,80.20
2018-06-01T19:39:14.441Z,82.90
2018-06-01T19:41:40.618Z,82.80
2018-06-01T19:44:06.803Z,83.00
2018-06-01T19:46:32.972Z,83.40
2018-06-01T19:48:59.908Z,85.60
2018-06-01T19:51:26.833Z,85.70
2018-06-01T19:53:53.019Z,85.60
2018-06-01T19:56:19.197Z,87.60
2018-06-01T19:58:45.353Z,88.20
2018-06-01T20:01:12.282Z,89.40
2018-06-01T20:03:38.463Z,89.30
2018-06-01T20:06:04.637Z,89.60
2018-06-01T20:08:30.827Z,90.20
2018-06-01T20:10:57.008Z,91.00
2018-06-01T20:13:23.286Z,91.20
2018-06-01T20:15:49.410Z,91.40
2018-06-01T20:18:16.321Z,92.20
2018-06-01T20:20:42.492Z,92.20
2018-06-01T20:23:09.399Z,93.40
2018-06-01T20:25:35.578Z,93.10
2018-06-01T20:28:01.740Z,93.70
2018-06-01T20:30:27.916Z,93.60
2018-06-01T20:32:54.825Z,94.70
2018-06-01T20:35:21.024Z,94.60
2018-06-01T20:37:47.189Z,95.00
2018-06-01T20:40:13.353Z,95.50
2018-06-01T20:42:39.550Z,96.00
2018-06-01T20:45:05.746Z,97.20
2018-06-01T20:47:31.941Z,97.80
2018-06-01T20:49:58.119Z,97.80
2018-06-01T20:52:24.294Z,97.60
2018-06-01T20:54:50.484Z,98.40
2018-06-01T20:57:16.674Z,99.90
2018-06-01T20:59:42.865Z,99.90
2018-06-01T21:02:10.381Z,99.90
2018-06-01T21:04:36.548Z,99.90
2018-06-01T21:07:02.743Z,99.90
2018-06-01T21:09:28.918Z,99.90
2018-06-01T21:11:55.125Z,99.90
2018-06-01T21:14:22.033Z,99.90
2018-06-01T21:16:48.210Z,99.90
2018-06-01T21:19:15.133Z,99.90
2018-06-01T21:21:41.311Z,99.90
2018-06-01T21:24:07.540Z,99.90
2018-06-01T21:26:33.729Z,99.90
2018-06-01T21:28:59.905Z,99.90
2018-06-01T21:31:26.093Z,99.90
2018-06-01T21:33:52.267Z,99.90
2018-06-01T21:36:18.473Z,99.90
2018-06-01T21:38:45.377Z,99.90
2018-06-01T21:41:11.538Z,99.90
2018-06-01T21:43:37.714Z,99.90
2018-06-01T21:46:03.877Z,99.90
2018-06-01T21:48:30.053Z,99.90
2018-06-01T21:50:56.964Z,99.90
2018-06-01T21:53:30.216Z,99.90
2018-06-01T21:55:56.395Z,99.90
2018-06-01T21:58:22.570Z,99.90
2018-06-01T22:00:49.554Z,99.90
2018-06-01T22:03:15.750Z,99.90
2018-06-01T22:05:42.673Z,99.90
2018-06-01T22:08:08.878Z,99.90
2018-06-01T22:10:35.044Z,99.90
2018-06-01T22:13:01.242Z,99.90
2018-06-01T22:15:27.417Z,99.90
2018-06-01T22:17:54.321Z,99.90
2018-06-01T22:20:20.492Z,99.90
2018-06-01T22:22:46.665Z,99.90
2018-06-01T22:25:12.854Z,99.90
2018-06-01T22:27:40.542Z,99.90
2018-06-01T22:30:07.461Z,99.90
2018-06-01T22:32:33.639Z,99.90
2018-06-01T22:34:59.816Z,99.90
2018-06-01T22:37:26.005Z,99.90
2018-06-01T22:39:52.216Z,99.90
2018-06-01T22:42:19.151Z,99.90
2018-06-01T22:44:46.061Z,99.90
2018-06-01T22:47:12.246Z,99.90
2018-06-01T22:49:39.154Z,99.90
2018-06-01T22:52:05.348Z,99.90
2018-06-01T22:54:31.525Z,99.90
2018-06-01T22:56:57.701Z,99.90
2018-06-01T22:59:23.906Z,99.90
2018-06-01T23:01:50.085Z,99.90
2018-06-01T23:04:16.257Z,99.90
2018-06-01T23:06:42.443Z,99.90
2018-06-01T23:09:08.629Z,99.90
2018-06-01T23:11:34.784Z,99.90
2018-06-01T23:14:01.698Z,99.90
2018-06-01T23:16:27.886Z,99.90
2018-06-01T23:18:54.077Z,99.90
2018-06-01T23:21:20.241Z,99.90
2018-06-01T23:23:47.153Z,99.90
2018-06-01T23:26:13.334Z,99.90
2018-06-01T23:28:39.502Z,99.90
2018-06-01T23:31:05.688Z,99.90
2018-06-01T23:33:31.873Z,99.90
2018-06-01T23:35:58.065Z,99.90
2018-06-01T23:38:24.237Z,99.90
2018-06-01T23:40:50.428Z,99.90
2018-06-01T23:43:16.609Z,99.90
2018-06-01T23:45:42.781Z,99.90
2018-06-01T23:48:09.701Z,99.90
2018-06-01T23:50:35.894Z,99.90
2018-06-01T23:53:02.071Z,99.90
2018-06-01T23:55:29.001Z,99.90
2018-06-01T23:57:55.178Z,99.90
